Time;durP1;ratioP1;P1;durP2;ratioP2;P2;SDS_P1;SDS_P2;PMS_P1;PMS_P2;Temp;Humidity;BMP_temperature;BMP_pressure;BME280_temperature;BME280_humidity;BME280_pressure;Samples;Min_cycle;Max_cycle;Signal;HPM_P1;HPM_P2
2023/07/26 00:01:33;;;;;;;83.97;53.05;;;18.50;80.50;;;;;;4979070;28;90535;-85
2023/07/26 00:03:58;;;;;;;84.03;53.15;;;18.50;80.60;;;;;;4977623;28;89586;-85
2023/07/26 00:06:29;;;;;;;82.88;53.20;;;18.50;80.60;;;;;;4980679;28;90161;-85
2023/07/26 00:08:55;;;;;;;84.03;53.47;;;18.50;80.30;;;;;;4975001;28;90360;-85
2023/07/26 00:11:21;;;;;;;83.00;53.33;;;18.40;80.40;;;;;;4981531;28;89640;-85
2023/07/26 00:13:47;;;;;;;82.38;53.08;;;18.40;80.50;;;;;;4976557;28;89982;-86
2023/07/26 00:16:12;;;;;;;83.25;53.00;;;18.40;80.60;;;;;;4977590;28;90243;-83
2023/07/26 00:18:39;;;;;;;81.85;52.80;;;18.40;80.50;;;;;;4980099;28;90357;-83
2023/07/26 00:21:05;;;;;;;82.97;53.38;;;18.40;80.70;;;;;;4976231;28;90885;-84
2023/07/26 00:23:31;;;;;;;83.63;53.38;;;18.40;80.50;;;;;;4977285;28;90649;-84
2023/07/26 00:25:57;;;;;;;83.07;53.35;;;18.40;80.50;;;;;;4977879;28;91214;-83
2023/07/26 00:28:23;;;;;;;84.55;53.33;;;18.40;80.60;;;;;;4978204;28;92793;-83
2023/07/26 00:30:49;;;;;;;83.25;53.10;;;18.40;80.70;;;;;;4979263;28;89191;-84
2023/07/26 00:33:15;;;;;;;82.65;53.35;;;18.40;80.70;;;;;;4984082;28;89924;-83
2023/07/26 00:35:42;;;;;;;82.60;53.05;;;18.40;80.50;;;;;;4980658;28;93164;-83
2023/07/26 00:38:07;;;;;;;83.50;53.38;;;18.40;80.60;;;;;;4983487;28;89865;-83
2023/07/26 00:40:33;;;;;;;83.60;53.30;;;18.30;80.90;;;;;;4985578;28;91761;-83
2023/07/26 00:42:59;;;;;;;82.50;53.42;;;18.30;80.50;;;;;;4987682;28;89211;-83
2023/07/26 00:45:27;;;;;;;83.70;52.88;;;18.30;80.60;;;;;;4984097;28;90074;-84
2023/07/26 00:47:52;;;;;;;82.47;52.70;;;18.30;80.80;;;;;;4986142;28;90483;-84
2023/07/26 00:50:19;;;;;;;84.82;53.08;;;18.30;80.80;;;;;;4983387;28;94118;-84
2023/07/26 00:52:46;;;;;;;83.55;53.42;;;18.30;80.80;;;;;;4984124;28;89427;-84
2023/07/26 00:55:12;;;;;;;83.15;53.33;;;18.30;80.70;;;;;;4989501;28;89588;-84
2023/07/26 00:57:38;;;;;;;82.80;53.22;;;18.30;80.60;;;;;;4990692;28;90394;-84
2023/07/26 01:00:05;;;;;;;82.55;52.50;;;18.20;80.80;;;;;;4981001;28;89111;-84
2023/07/26 01:02:31;;;;;;;83.22;53.25;;;18.30;81.20;;;;;;4977357;28;89502;-84
2023/07/26 01:04:57;;;;;;;83.18;52.85;;;18.30;81.00;;;;;;4984019;28;89893;-84
2023/07/26 01:07:44;;;;;;;84.32;53.03;;;18.20;80.80;;;;;;4978210;28;91919;-84
2023/07/26 01:10:25;;;;;;;83.20;52.83;;;18.20;81.10;;;;;;4981715;28;89754;-84
2023/07/26 01:12:57;;;;;;;83.68;53.00;;;18.20;80.90;;;;;;4983152;28;94576;-84
2023/07/26 01:15:29;;;;;;;83.20;53.20;;;18.20;81.10;;;;;;4983742;28;92978;-84
2023/07/26 01:18:11;;;;;;;82.82;52.92;;;18.20;81.00;;;;;;4988707;28;90802;-83
2023/07/26 01:20:37;;;;;;;82.13;52.80;;;18.20;81.40;;;;;;4983795;28;89896;-83
2023/07/26 01:23:03;;;;;;;82.20;52.95;;;18.20;81.40;;;;;;4984429;28;93786;-83
2023/07/26 01:25:28;;;;;;;82.75;53.20;;;18.20;81.20;;;;;;4981079;28;90995;-84
2023/07/26 01:27:54;;;;;;;83.40;52.95;;;18.20;81.10;;;;;;4984672;28;89326;-84
2023/07/26 01:30:19;;;;;;;83.32;53.15;;;18.10;81.60;;;;;;4981784;28;89677;-83
2023/07/26 01:32:49;;;;;;;82.35;52.85;;;18.10;81.50;;;;;;4983266;28;88626;-84
2023/07/26 01:35:15;;;;;;;82.93;53.33;;;18.10;81.60;;;;;;4984902;28;89660;-84
2023/07/26 01:37:41;;;;;;;82.53;53.40;;;18.10;81.30;;;;;;4979464;28;89879;-83
2023/07/26 01:40:08;;;;;;;82.70;52.85;;;18.10;81.20;;;;;;4984232;28;90394;-83
2023/07/26 01:42:34;;;;;;;82.20;53.13;;;18.10;82.00;;;;;;4984705;28;89356;-83
2023/07/26 01:45:03;;;;;;;82.95;53.17;;;18.10;81.10;;;;;;4988984;28;91716;-84
2023/07/26 01:47:29;;;;;;;82.82;53.08;;;18.10;82.30;;;;;;4988595;28;89627;-84
2023/07/26 01:49:55;;;;;;;83.05;52.92;;;18.10;81.80;;;;;;4994600;28;92842;-84
2023/07/26 01:52:22;;;;;;;82.32;53.05;;;18.10;81.20;;;;;;4987092;28;90483;-84
2023/07/26 01:54:48;;;;;;;82.85;52.95;;;18.00;81.30;;;;;;4985087;28;89479;-85
2023/07/26 01:57:13;;;;;;;82.28;52.95;;;18.00;81.20;;;;;;4984101;28;89371;-84
2023/07/26 01:59:39;;;;;;;82.82;52.90;;;18.00;81.20;;;;;;4983432;28;91151;-84
2023/07/26 02:02:04;;;;;;;84.22;53.55;;;18.00;81.30;;;;;;4985315;28;89820;-84
2023/07/26 02:04:30;;;;;;;83.28;53.50;;;18.00;81.30;;;;;;4983128;28;90541;-84
2023/07/26 02:06:56;;;;;;;83.13;52.90;;;18.00;81.40;;;;;;4988309;28;90298;-84
2023/07/26 02:09:21;;;;;;;81.72;52.78;;;18.00;81.40;;;;;;4987813;28;89712;-84
2023/07/26 02:11:47;;;;;;;83.78;53.05;;;18.00;81.80;;;;;;4983681;28;89661;-83
2023/07/26 02:14:14;;;;;;;82.60;53.00;;;18.00;81.30;;;;;;4980034;28;89809;-83
2023/07/26 02:16:40;;;;;;;83.95;53.30;;;18.00;81.60;;;;;;4983622;28;91720;-83
2023/07/26 02:19:05;;;;;;;81.97;52.83;;;18.00;81.50;;;;;;4984210;28;91696;-83
2023/07/26 02:21:31;;;;;;;83.15;53.20;;;17.90;81.40;;;;;;4983106;28;89656;-83
2023/07/26 02:23:56;;;;;;;81.80;52.75;;;18.00;81.70;;;;;;4984524;28;91212;-83
2023/07/26 02:26:22;;;;;;;82.35;52.83;;;17.90;81.50;;;;;;4984511;28;89967;-83
2023/07/26 02:28:47;;;;;;;82.78;52.97;;;17.90;81.80;;;;;;4981990;28;91713;-83
2023/07/26 02:31:13;;;;;;;82.43;53.00;;;17.90;81.60;;;;;;4975843;28;90882;-82
2023/07/26 02:33:39;;;;;;;81.60;52.72;;;17.90;81.80;;;;;;4981029;28;90056;-84
2023/07/26 02:36:04;;;;;;;82.65;52.97;;;17.90;81.70;;;;;;4980121;28;93927;-83
2023/07/26 02:38:30;;;;;;;82.60;53.00;;;17.90;81.60;;;;;;4983832;28;89887;-82
2023/07/26 02:40:55;;;;;;;81.97;52.67;;;17.90;81.60;;;;;;4977674;28;93399;-84
2023/07/26 02:43:21;;;;;;;82.40;52.78;;;17.90;81.50;;;;;;4985752;28;91961;-83
2023/07/26 02:45:47;;;;;;;82.13;52.88;;;17.90;81.80;;;;;;4987038;28;91671;-82
2023/07/26 02:48:12;;;;;;;82.43;52.83;;;17.90;82.00;;;;;;4981777;28;89403;-82
2023/07/26 02:50:38;;;;;;;82.32;52.67;;;17.90;81.60;;;;;;4984662;28;89645;-81
2023/07/26 02:53:03;;;;;;;83.68;53.05;;;17.90;81.90;;;;;;4987707;28;90597;-84
2023/07/26 02:55:29;;;;;;;81.43;52.47;;;17.90;81.70;;;;;;4986472;28;94387;-84
2023/07/26 02:57:55;;;;;;;81.38;52.55;;;17.80;81.80;;;;;;4988114;28;92429;-84
2023/07/26 03:00:20;;;;;;;83.75;52.90;;;17.80;81.60;;;;;;4984803;28;90107;-84
2023/07/26 03:02:46;;;;;;;81.85;52.58;;;17.90;81.80;;;;;;4983690;28;90990;-85
2023/07/26 03:05:11;;;;;;;82.05;52.70;;;17.80;81.80;;;;;;4987116;28;89848;-85
2023/07/26 03:07:37;;;;;;;81.93;52.60;;;17.80;81.70;;;;;;4986943;28;89506;-84
2023/07/26 03:10:03;;;;;;;82.03;52.72;;;17.80;81.90;;;;;;4990966;28;88607;-84
2023/07/26 03:12:28;;;;;;;81.22;52.45;;;17.80;81.80;;;;;;4985935;28;90436;-84
2023/07/26 03:14:54;;;;;;;81.68;52.72;;;17.80;82.40;;;;;;4982064;28;89724;-84
2023/07/26 03:17:20;;;;;;;82.13;52.80;;;17.80;81.80;;;;;;4985146;28;92639;-84
2023/07/26 03:19:45;;;;;;;82.10;52.85;;;17.70;81.80;;;;;;4976808;28;89997;-84
2023/07/26 03:22:11;;;;;;;82.22;52.70;;;17.70;82.70;;;;;;4985105;28;90355;-84
2023/07/26 03:24:36;;;;;;;83.88;53.22;;;17.70;82.40;;;;;;4984723;28;91573;-84
2023/07/26 03:27:02;;;;;;;83.90;52.90;;;17.70;82.40;;;;;;4984168;28;90286;-83
2023/07/26 03:29:28;;;;;;;83.53;52.83;;;17.70;82.60;;;;;;4986202;28;89496;-84
2023/07/26 03:31:53;;;;;;;83.32;53.22;;;17.70;82.10;;;;;;4982844;28;90485;-84
2023/07/26 03:34:19;;;;;;;82.30;52.92;;;17.70;82.30;;;;;;4985361;28;92953;-84
2023/07/26 03:36:44;;;;;;;83.07;52.90;;;17.60;82.10;;;;;;4984194;28;90172;-84
2023/07/26 03:39:10;;;;;;;81.20;52.75;;;17.60;82.50;;;;;;4988426;28;90505;-84
2023/07/26 03:41:36;;;;;;;82.82;53.17;;;17.60;82.60;;;;;;4985339;28;91714;-84
2023/07/26 03:44:01;;;;;;;82.53;52.97;;;17.50;82.40;;;;;;4987307;28;90525;-84
2023/07/26 03:46:27;;;;;;;83.85;53.10;;;17.50;82.50;;;;;;4988142;28;89450;-83
2023/07/26 03:48:53;;;;;;;82.35;52.97;;;17.50;82.40;;;;;;4986141;28;89859;-84
2023/07/26 03:51:18;;;;;;;82.68;52.85;;;17.50;82.70;;;;;;4985625;28;90243;-84
2023/07/26 03:53:44;;;;;;;82.10;52.60;;;17.50;83.60;;;;;;4984446;28;90206;-84
2023/07/26 03:56:09;;;;;;;81.97;52.72;;;17.40;82.80;;;;;;4982506;28;89086;-83
2023/07/26 03:58:35;;;;;;;81.53;52.47;;;17.40;82.80;;;;;;4988925;28;88712;-83
2023/07/26 04:01:00;;;;;;;81.60;52.60;;;17.40;82.80;;;;;;4981316;28;90397;-83
2023/07/26 04:03:26;;;;;;;81.25;52.78;;;17.40;82.90;;;;;;4981982;28;93588;-84
2023/07/26 04:05:51;;;;;;;83.68;52.65;;;17.40;83.70;;;;;;4979878;28;89966;-84
2023/07/26 04:08:17;;;;;;;82.07;52.92;;;17.40;83.00;;;;;;4984491;28;89253;-84
2023/07/26 04:10:42;;;;;;;81.93;52.95;;;17.30;83.50;;;;;;4984625;28;92129;-84
2023/07/26 04:13:08;;;;;;;83.00;52.78;;;17.30;83.10;;;;;;4986983;28;89914;-85
2023/07/26 04:15:34;;;;;;;82.20;52.65;;;17.30;83.40;;;;;;4989160;28;92353;-85
2023/07/26 04:17:59;;;;;;;83.38;52.67;;;17.30;83.40;;;;;;4987878;28;89270;-85
2023/07/26 04:20:25;;;;;;;82.50;52.88;;;17.30;82.90;;;;;;4986866;28;89734;-85
2023/07/26 04:22:50;;;;;;;81.47;52.58;;;17.30;83.10;;;;;;4988412;28;89949;-84
2023/07/26 04:25:17;;;;;;;83.13;52.88;;;17.30;83.30;;;;;;4990346;28;89281;-85
2023/07/26 04:27:42;;;;;;;81.78;52.80;;;17.30;83.00;;;;;;4991170;28;89822;-85
2023/07/26 04:30:08;;;;;;;83.03;53.15;;;17.20;83.20;;;;;;4987077;28;91658;-85
2023/07/26 04:32:34;;;;;;;81.22;52.38;;;17.20;82.90;;;;;;4989073;28;89830;-86
2023/07/26 04:34:59;;;;;;;83.95;53.10;;;17.20;83.00;;;;;;4989369;28;90341;-84
2023/07/26 04:37:25;;;;;;;81.63;52.88;;;17.20;83.00;;;;;;4987354;28;89425;-84
2023/07/26 04:39:50;;;;;;;82.22;52.75;;;17.20;83.00;;;;;;4984792;28;90004;-83
2023/07/26 04:42:17;;;;;;;82.50;52.83;;;17.20;82.80;;;;;;4988836;28;92892;-83
2023/07/26 04:44:43;;;;;;;82.97;53.20;;;17.20;82.70;;;;;;4986199;28;90514;-84
2023/07/26 04:47:08;;;;;;;82.65;52.83;;;17.30;82.90;;;;;;4988341;28;90205;-84
2023/07/26 04:49:34;;;;;;;82.57;52.95;;;17.20;82.60;;;;;;4991411;28;89782;-84
2023/07/26 04:52:00;;;;;;;81.63;52.80;;;17.30;82.70;;;;;;4987654;28;93161;-84
2023/07/26 04:54:25;;;;;;;81.97;52.75;;;17.30;82.80;;;;;;4988142;28;91446;-84
2023/07/26 04:56:51;;;;;;;81.93;52.80;;;17.30;82.90;;;;;;4987737;28;89910;-84
2023/07/26 04:59:16;;;;;;;81.35;52.47;;;17.30;82.80;;;;;;4990944;28;89302;-84
2023/07/26 05:01:42;;;;;;;83.05;52.92;;;17.30;83.40;;;;;;4991258;28;90327;-84
2023/07/26 05:04:09;;;;;;;81.88;52.78;;;17.30;82.30;;;;;;4990640;28;90840;-84
2023/07/26 05:06:34;;;;;;;83.30;53.05;;;17.30;82.70;;;;;;4989702;28;89467;-84
2023/07/26 05:09:00;;;;;;;81.85;52.75;;;17.30;82.30;;;;;;4986285;28;90572;-83
2023/07/26 05:11:26;;;;;;;83.07;52.53;;;17.30;82.10;;;;;;4989107;28;92472;-84
2023/07/26 05:13:51;;;;;;;84.15;53.13;;;17.30;82.00;;;;;;4989742;28;90376;-84
2023/07/26 05:16:17;;;;;;;81.63;52.58;;;17.30;82.00;;;;;;4994382;28;89406;-85
2023/07/26 05:18:43;;;;;;;81.20;52.50;;;17.30;82.10;;;;;;4986105;28;91259;-86
2023/07/26 05:21:08;;;;;;;82.10;53.03;;;17.30;82.10;;;;;;4986910;28;90096;-87
2023/07/26 05:23:34;;;;;;;82.45;52.88;;;17.40;82.20;;;;;;4986677;28;89541;-86
2023/07/26 05:25:59;;;;;;;81.72;52.55;;;17.40;82.00;;;;;;4986869;28;89636;-86
2023/07/26 05:28:25;;;;;;;81.45;52.67;;;17.40;81.90;;;;;;4992511;28;90150;-87
2023/07/26 05:30:50;;;;;;;85.70;53.22;;;17.40;82.20;;;;;;4988807;28;89473;-84
2023/07/26 05:33:16;;;;;;;84.18;52.88;;;17.40;82.00;;;;;;4983276;28;91385;-84
2023/07/26 05:35:42;;;;;;;81.70;52.90;;;17.40;82.10;;;;;;4992390;28;92342;-86
2023/07/26 05:38:07;;;;;;;80.95;52.40;;;17.40;81.90;;;;;;5004781;28;91038;-88
2023/07/26 05:40:33;;;;;;;83.47;52.85;;;17.40;81.80;;;;;;4996746;28;93131;-85
2023/07/26 05:42:58;;;;;;;81.65;52.63;;;17.40;82.20;;;;;;4989295;28;90547;-84
2023/07/26 05:45:24;;;;;;;81.13;52.70;;;17.40;81.40;;;;;;4981477;28;93588;-80
2023/07/26 05:47:49;;;;;;;83.03;52.60;;;17.40;83.60;;;;;;4973501;28;93335;-82
2023/07/26 05:50:15;;;;;;;87.57;53.33;;;17.50;84.40;;;;;;4979289;28;93301;-83
2023/07/26 05:52:41;;;;;;;84.85;53.22;;;17.50;87.40;;;;;;4982889;28;90620;-83
2023/07/26 05:55:07;;;;;;;88.20;53.67;;;17.50;82.50;;;;;;4983422;28;89354;-82
2023/07/26 05:57:33;;;;;;;87.53;54.08;;;17.60;89.00;;;;;;4981920;28;92120;-82
2023/07/26 05:59:59;;;;;;;87.07;53.65;;;17.60;83.90;;;;;;4992221;28;89914;-81
2023/07/26 06:02:25;;;;;;;87.00;53.88;;;17.60;85.00;;;;;;4978792;28;90418;-80
2023/07/26 06:04:51;;;;;;;91.68;53.88;;;17.60;85.60;;;;;;4984054;28;90779;-80
2023/07/26 06:07:17;;;;;;;87.60;53.65;;;17.70;84.10;;;;;;4980421;28;92032;-79
2023/07/26 06:09:43;;;;;;;87.00;54.15;;;17.70;84.80;;;;;;4981514;28;91116;-80
2023/07/26 06:12:09;;;;;;;89.05;54.42;;;17.70;86.70;;;;;;4976758;28;90180;-80
2023/07/26 06:14:35;;;;;;;87.53;53.50;;;17.80;86.20;;;;;;4979584;28;89215;-78
2023/07/26 06:17:00;;;;;;;83.05;53.08;;;17.80;83.00;;;;;;4978231;28;91085;-79
2023/07/26 06:19:26;;;;;;;84.03;53.05;;;17.80;81.60;;;;;;4980710;28;89935;-79
2023/07/26 06:21:55;;;;;;;92.10;54.60;;;17.80;80.70;;;;;;4980814;28;90136;-79
2023/07/26 06:24:22;;;;;;;91.10;54.15;;;17.90;86.70;;;;;;4982616;28;89013;-78
2023/07/26 06:26:48;;;;;;;84.90;53.35;;;18.00;88.00;;;;;;5001282;28;89756;-79
2023/07/26 06:29:13;;;;;;;84.07;53.25;;;18.00;83.10;;;;;;4995329;28;89821;-78
2023/07/26 06:31:39;;;;;;;85.70;53.17;;;18.00;81.30;;;;;;4989640;28;91345;-81
2023/07/26 06:34:05;;;;;;;83.53;53.15;;;18.00;80.00;;;;;;4979433;28;90912;-80
2023/07/26 06:36:30;;;;;;;83.30;53.10;;;18.00;80.40;;;;;;4984369;28;90659;-81
2023/07/26 06:38:56;;;;;;;87.50;53.55;;;18.00;80.60;;;;;;4978116;28;90080;-79
2023/07/26 06:41:21;;;;;;;84.75;53.63;;;18.10;80.30;;;;;;4977024;28;89693;-81
2023/07/26 06:43:47;;;;;;;84.22;53.25;;;18.10;80.70;;;;;;4978537;28;90688;-78
2023/07/26 06:46:12;;;;;;;83.63;53.40;;;18.10;80.20;;;;;;4976183;28;91130;-78
2023/07/26 06:48:38;;;;;;;84.43;53.15;;;18.20;80.00;;;;;;4974743;28;91180;-78
2023/07/26 06:51:04;;;;;;;84.57;53.65;;;18.20;79.10;;;;;;4976621;28;90137;-80
2023/07/26 06:53:30;;;;;;;84.43;53.33;;;18.20;79.90;;;;;;4973791;28;93941;-77
2023/07/26 06:55:59;;;;;;;85.93;53.42;;;18.20;79.50;;;;;;4974123;28;91054;-81
2023/07/26 06:58:25;;;;;;;87.88;53.63;;;18.30;80.90;;;;;;4980324;28;95293;-77
2023/07/26 07:00:52;;;;;;;86.63;54.03;;;18.30;79.00;;;;;;4974712;28;90203;-78
2023/07/26 07:03:18;;;;;;;89.72;54.25;;;18.30;78.60;;;;;;4979670;28;90050;-77
2023/07/26 07:05:43;;;;;;;88.40;54.63;;;18.30;78.00;;;;;;4974804;28;92061;-79
2023/07/26 07:08:09;;;;;;;88.47;54.70;;;18.40;79.20;;;;;;4976361;28;91367;-79
2023/07/26 07:10:34;;;;;;;89.55;54.58;;;18.40;79.90;;;;;;4985287;28;90559;-79
2023/07/26 07:13:00;;;;;;;89.55;54.50;;;18.50;83.10;;;;;;4971649;28;89162;-78
2023/07/26 07:15:25;;;;;;;88.97;54.55;;;18.50;82.40;;;;;;4977162;28;91132;-78
2023/07/26 07:17:51;;;;;;;90.60;54.90;;;18.50;80.30;;;;;;4975051;28;90898;-78
2023/07/26 07:20:17;;;;;;;88.88;54.22;;;18.60;86.30;;;;;;4972039;28;91674;-78
2023/07/26 07:22:42;;;;;;;91.88;54.38;;;18.70;80.40;;;;;;4976888;28;90413;-80
2023/07/26 07:25:08;;;;;;;87.22;54.03;;;18.70;83.20;;;;;;4976407;28;90283;-78
2023/07/26 07:27:34;;;;;;;94.13;54.75;;;18.70;81.20;;;;;;4981236;28;89992;-78
2023/07/26 07:30:02;;;;;;;89.00;53.88;;;18.70;79.10;;;;;;4986601;28;91513;-80
2023/07/26 07:32:28;;;;;;;86.93;53.95;;;18.80;82.60;;;;;;4984076;28;90097;-80
2023/07/26 07:34:54;;;;;;;87.55;54.08;;;18.80;79.60;;;;;;4983027;28;91072;-81
2023/07/26 07:37:20;;;;;;;84.55;53.53;;;18.80;79.00;;;;;;4978993;28;90890;-81
2023/07/26 07:39:46;;;;;;;86.88;53.63;;;18.80;78.40;;;;;;4978750;28;89675;-81
2023/07/26 07:42:11;;;;;;;84.45;53.58;;;18.80;78.70;;;;;;4979796;28;92908;-80
2023/07/26 07:44:38;;;;;;;87.05;53.95;;;18.80;78.30;;;;;;4974749;28;94276;-80
2023/07/26 07:47:04;;;;;;;84.95;53.55;;;18.80;79.40;;;;;;4980669;28;90064;-80
2023/07/26 07:49:29;;;;;;;84.07;53.83;;;18.90;78.40;;;;;;4972947;28;89641;-80
2023/07/26 07:51:55;;;;;;;85.55;53.90;;;18.90;78.50;;;;;;4977873;28;93374;-80
2023/07/26 07:54:20;;;;;;;85.20;53.70;;;18.90;78.90;;;;;;4979221;28;89702;-81
2023/07/26 07:56:47;;;;;;;86.22;53.65;;;18.90;78.50;;;;;;4977242;28;90193;-81
2023/07/26 07:59:13;;;;;;;86.28;54.15;;;18.90;78.90;;;;;;4973521;28;89382;-80
2023/07/26 08:01:39;;;;;;;84.78;53.65;;;19.00;79.20;;;;;;4977451;28;89204;-80
2023/07/26 08:04:04;;;;;;;86.13;53.92;;;19.00;78.40;;;;;;4975034;28;90164;-81
2023/07/26 08:06:32;;;;;;;87.55;54.33;;;19.00;78.20;;;;;;4972478;28;89973;-81
2023/07/26 08:08:57;;;;;;;83.65;52.85;;;19.00;79.90;;;;;;4977594;28;91671;-82
2023/07/26 08:11:23;;;;;;;87.10;54.13;;;19.10;78.10;;;;;;4976675;28;90119;-82
2023/07/26 08:13:48;;;;;;;90.07;53.78;;;19.10;78.10;;;;;;4980209;28;89768;-80
2023/07/26 08:16:14;;;;;;;84.55;53.58;;;19.10;78.20;;;;;;4982077;28;89794;-81
2023/07/26 08:18:40;;;;;;;85.03;54.00;;;19.10;78.00;;;;;;4979945;28;89722;-80
2023/07/26 08:21:06;;;;;;;85.78;53.95;;;19.10;79.20;;;;;;4982201;28;89669;-78
2023/07/26 08:23:32;;;;;;;87.28;54.17;;;19.20;77.70;;;;;;4980233;28;90240;-80
2023/07/26 08:26:07;;;;;;;86.75;54.30;;;19.20;78.70;;;;;;4980928;28;90307;-79
2023/07/26 08:28:33;;;;;;;87.03;53.47;;;19.20;80.30;;;;;;4981507;28;89362;-79
2023/07/26 08:30:59;;;;;;;85.88;53.80;;;19.30;78.00;;;;;;4981092;28;90938;-79
2023/07/26 08:33:25;;;;;;;86.70;54.70;;;19.30;77.60;;;;;;4972023;28;91493;-79
2023/07/26 08:35:51;;;;;;;86.97;53.45;;;19.30;78.30;;;;;;4980074;28;90082;-81
2023/07/26 08:38:17;;;;;;;85.95;54.03;;;19.30;77.60;;;;;;4975544;28;90133;-81
2023/07/26 08:40:48;;;;;;;85.32;53.65;;;19.40;77.40;;;;;;4987259;28;89680;-81
2023/07/26 08:43:16;;;;;;;87.37;53.83;;;19.40;77.30;;;;;;4975398;28;91175;-80
2023/07/26 08:45:42;;;;;;;87.03;53.90;;;19.40;79.20;;;;;;4980643;28;90827;-80
2023/07/26 08:48:09;;;;;;;88.93;54.13;;;19.50;78.20;;;;;;4977223;28;90873;-81
2023/07/26 08:50:38;;;;;;;87.18;54.25;;;19.50;79.40;;;;;;4974639;28;88969;-81
2023/07/26 08:53:05;;;;;;;86.82;53.97;;;19.60;77.80;;;;;;4979208;28;90538;-82
2023/07/26 08:55:31;;;;;;;86.60;53.85;;;19.60;77.80;;;;;;4972236;28;90606;-80
2023/07/26 08:57:58;;;;;;;89.43;54.45;;;19.60;77.20;;;;;;4981207;28;90523;-81
2023/07/26 09:00:26;;;;;;;88.35;54.80;;;19.60;81.20;;;;;;4978951;27;90665;-79
2023/07/26 09:02:54;;;;;;;85.80;54.15;;;19.70;82.60;;;;;;4976359;28;89831;-78
2023/07/26 09:05:20;;;;;;;84.75;53.53;;;19.70;80.20;;;;;;4979322;28;89648;-80
2023/07/26 09:07:45;;;;;;;86.97;54.10;;;19.70;77.90;;;;;;4982183;28;90012;-79
2023/07/26 09:10:11;;;;;;;86.40;53.90;;;19.80;77.60;;;;;;4980584;28;94239;-79
2023/07/26 09:12:36;;;;;;;87.93;53.90;;;19.80;76.70;;;;;;4976566;28;91898;-81
2023/07/26 09:15:06;;;;;;;86.80;54.33;;;19.90;76.50;;;;;;4981350;28;89866;-80
2023/07/26 09:17:43;;;;;;;86.47;54.20;;;19.90;76.50;;;;;;4982867;28;93382;-84
2023/07/26 09:20:25;;;;;;;85.25;53.85;;;19.90;77.10;;;;;;4982757;28;93047;-83
2023/07/26 09:23:04;;;;;;;85.38;53.75;;;20.00;75.90;;;;;;4982047;28;92119;-80
2023/07/26 09:25:37;;;;;;;87.13;53.97;;;20.00;75.70;;;;;;4980359;28;92413;-80
2023/07/26 09:28:04;;;;;;;85.38;54.00;;;20.00;77.20;;;;;;4977193;28;94913;-80
2023/07/26 09:30:33;;;;;;;87.32;54.10;;;20.10;76.20;;;;;;4977061;28;90768;-79
2023/07/26 09:33:01;;;;;;;85.28;53.95;;;20.10;77.80;;;;;;4981140;28;93645;-79
2023/07/26 09:35:26;;;;;;;85.18;54.13;;;20.10;75.20;;;;;;4980219;28;93607;-80
2023/07/26 09:37:53;;;;;;;87.18;54.15;;;20.10;75.30;;;;;;4980876;28;90178;-80
2023/07/26 09:40:31;;;;;;;85.85;53.85;;;20.20;77.50;;;;;;4979250;28;89591;-77
2023/07/26 09:42:57;;;;;;;86.10;53.92;;;20.30;75.40;;;;;;4978294;28;91010;-78
2023/07/26 09:45:24;;;;;;;85.95;54.10;;;20.30;76.70;;;;;;4977350;28;91276;-81
2023/07/26 09:47:53;;;;;;;87.15;54.17;;;20.30;75.70;;;;;;4978760;28;90978;-79
2023/07/26 09:50:26;;;;;;;85.88;53.92;;;20.40;76.40;;;;;;4978850;28;90524;-78
2023/07/26 09:52:56;;;;;;;86.68;54.17;;;20.40;74.80;;;;;;4978683;28;90574;-80
2023/07/26 09:55:26;;;;;;;87.93;54.05;;;20.50;75.20;;;;;;4994435;27;92338;-81
2023/07/26 09:57:53;;;;;;;88.55;54.47;;;20.50;74.60;;;;;;4975714;28;89987;-81
2023/07/26 10:00:24;;;;;;;85.82;54.13;;;20.50;76.90;;;;;;4977104;28;90546;-79
2023/07/26 10:03:03;;;;;;;87.47;54.20;;;20.60;75.60;;;;;;4978476;28;93656;-79
2023/07/26 10:05:38;;;;;;;86.00;54.00;;;20.60;75.10;;;;;;4984244;28;89841;-80
2023/07/26 10:08:05;;;;;;;86.82;54.42;;;20.60;73.60;;;;;;4986532;28;90452;-81
2023/07/26 10:10:31;;;;;;;89.57;54.65;;;20.80;61.50;;;;;;4977171;28;89567;-79
2023/07/26 10:12:57;;;;;;;86.53;54.03;;;20.90;58.80;;;;;;4979656;28;91129;-82
2023/07/26 10:15:25;;;;;;;90.22;54.45;;;21.10;65.90;;;;;;4977481;28;91165;-79
2023/07/26 10:17:52;;;;;;;87.07;54.42;;;21.10;59.50;;;;;;4981124;28;90893;-79
2023/07/26 10:20:18;;;;;;;86.38;54.47;;;21.20;57.90;;;;;;4984563;28;94476;-78
2023/07/26 10:22:43;;;;;;;86.72;54.67;;;21.20;55.10;;;;;;4983443;28;92775;-77
2023/07/26 10:25:11;;;;;;;87.85;54.83;;;21.30;54.00;;;;;;4984719;28;94755;-80
2023/07/26 10:27:37;;;;;;;90.22;54.30;;;21.40;54.90;;;;;;4984280;28;91014;-79
2023/07/26 10:30:05;;;;;;;86.50;54.42;;;21.50;56.80;;;;;;4977375;28;89368;-80
2023/07/26 10:32:31;;;;;;;86.10;54.30;;;21.40;56.00;;;;;;4979717;28;94452;-80
2023/07/26 10:34:58;;;;;;;86.32;54.60;;;21.40;54.90;;;;;;4982293;28;91047;-80
2023/07/26 10:37:32;;;;;;;87.07;54.50;;;21.30;54.40;;;;;;4979686;28;91021;-81
2023/07/26 10:39:59;;;;;;;86.07;54.28;;;21.30;56.50;;;;;;4981374;28;91441;-79
2023/07/26 10:42:29;;;;;;;86.53;54.53;;;21.30;54.30;;;;;;4980118;28;90270;-81
2023/07/26 10:45:02;;;;;;;87.23;54.27;;;21.40;57.70;;;;;;4984943;28;89760;-82
2023/07/26 10:47:29;;;;;;;87.43;54.45;;;21.40;56.00;;;;;;4981266;28;90731;-80
2023/07/26 10:50:05;;;;;;;87.40;54.70;;;21.50;54.80;;;;;;4984793;28;89745;-81
2023/07/26 10:52:36;;;;;;;87.65;54.53;;;21.60;55.30;;;;;;4988318;28;91237;-81
2023/07/26 10:55:23;;;;;;;87.15;54.50;;;21.70;53.20;;;;;;4987014;28;91821;-81
2023/07/26 10:57:49;;;;;;;86.80;54.35;;;21.70;53.80;;;;;;4980646;28;89737;-80
2023/07/26 11:00:23;;;;;;;87.40;54.67;;;21.70;55.40;;;;;;4977537;28;89905;-80
2023/07/26 11:02:49;;;;;;;87.32;54.63;;;21.70;54.00;;;;;;4989254;28;90632;-80
2023/07/26 11:05:22;;;;;;;88.28;54.58;;;21.70;54.70;;;;;;4990956;28;93726;-82
2023/07/26 11:07:58;;;;;;;90.43;54.38;;;21.60;56.40;;;;;;4983013;28;90151;-79
2023/07/26 11:10:28;;;;;;;87.88;54.33;;;21.60;55.30;;;;;;4979472;28;92108;-80
2023/07/26 11:13:16;;;;;;;86.47;54.28;;;21.60;52.60;;;;;;4986175;28;89803;-80
2023/07/26 11:15:46;;;;;;;85.80;54.15;;;21.50;51.30;;;;;;4985733;28;93585;-81
2023/07/26 11:18:14;;;;;;;85.73;54.20;;;21.50;54.70;;;;;;4984524;28;89570;-81
2023/07/26 11:20:45;;;;;;;85.88;54.20;;;21.50;52.70;;;;;;4981569;28;88722;-81
2023/07/26 11:23:22;;;;;;;86.82;54.08;;;21.60;54.00;;;;;;4977679;28;90311;-79
2023/07/26 11:25:49;;;;;;;85.35;53.75;;;21.60;54.40;;;;;;4979418;28;89646;-79
2023/07/26 11:28:15;;;;;;;87.97;54.53;;;21.60;51.90;;;;;;4979236;28;92273;-82
2023/07/26 11:30:52;;;;;;;86.85;54.45;;;21.50;52.90;;;;;;4978459;28;90230;-79
2023/07/26 11:33:28;;;;;;;85.88;54.45;;;21.60;55.10;;;;;;4987242;28;92285;-79
2023/07/26 11:35:54;;;;;;;86.00;54.38;;;21.70;52.80;;;;;;4980481;28;91936;-78
2023/07/26 11:38:20;;;;;;;86.80;54.45;;;21.90;55.00;;;;;;4984799;28;89809;-78
2023/07/26 11:40:46;;;;;;;87.63;54.83;;;22.00;56.10;;;;;;4978710;28;89585;-78
2023/07/26 11:43:12;;;;;;;88.38;55.10;;;22.30;52.40;;;;;;4979277;28;92831;-81
2023/07/26 11:45:41;;;;;;;89.40;55.30;;;22.50;52.40;;;;;;4973422;28;89788;-78
2023/07/26 11:48:09;;;;;;;88.13;54.85;;;22.60;55.40;;;;;;4972998;28;89921;-80
2023/07/26 11:50:36;;;;;;;88.40;54.75;;;22.60;53.70;;;;;;4983009;28;90600;-81
2023/07/26 11:53:10;;;;;;;88.22;54.45;;;22.50;54.10;;;;;;4981868;28;93680;-81
2023/07/26 11:55:38;;;;;;;87.68;54.88;;;22.50;54.70;;;;;;4981395;28;90401;-81
2023/07/26 11:58:08;;;;;;;89.40;55.00;;;22.50;54.70;;;;;;4987778;28;92182;-80
2023/07/26 12:00:36;;;;;;;87.53;54.88;;;22.50;53.40;;;;;;4981932;28;91532;-80
2023/07/26 12:03:03;;;;;;;89.25;55.25;;;22.60;55.70;;;;;;4979735;28;90518;-81
2023/07/26 12:05:29;;;;;;;89.43;55.28;;;22.60;54.10;;;;;;4980179;28;89968;-82
2023/07/26 12:07:57;;;;;;;89.50;54.88;;;22.70;55.00;;;;;;4983030;28;90667;-80
2023/07/26 12:10:40;;;;;;;88.00;54.78;;;22.70;55.10;;;;;;4983083;28;88542;-80
2023/07/26 12:13:18;;;;;;;89.18;54.65;;;22.70;52.00;;;;;;4985833;28;91708;-85
2023/07/26 12:16:01;;;;;;;89.15;55.22;;;22.80;54.60;;;;;;4987726;28;89278;-82
2023/07/26 12:18:27;;;;;;;87.65;54.45;;;22.80;52.40;;;;;;4989380;28;90855;-81
2023/07/26 12:21:07;;;;;;;88.88;55.53;;;22.70;53.90;;;;;;4985917;28;89677;-80
2023/07/26 12:23:52;;;;;;;88.97;55.40;;;22.70;56.20;;;;;;4984102;28;91737;-80
2023/07/26 12:26:26;;;;;;;90.07;55.17;;;22.70;54.10;;;;;;4984232;28;89995;-81
2023/07/26 12:28:53;;;;;;;88.10;54.80;;;22.60;53.50;;;;;;4981180;28;90361;-80